TOURFACTS.DK  
Stats and Facts from Tour de France.

Tour de France 2019 starts in 323 days
  Riders   Stages   Teams   Summits   Yearly  


 
Search by year

After 2018 - Stage 21:
 15000 starters.
  5165 different riders.
  638 teams.
  2253 stages.
  456 restdays.
  442940.60 km.
  5684 abandonnees.


Top 3
GC
Geraint Thomas83:17:13
Tom Dumoulin83:19:04
Christopher Froome83:19:37
Climb
Julian Alaphilippe170 pt.
Warren Barguil91 pt.
Rafal Majka76 pt.
Sprint
Peter Sagan477 pt.
Alexander Kristoff246 pt.
Arnaud Démare203 pt.
Youth
Pierre-Roger Latou..83:39:26
Egan Bernal83:45:05
Guillaume Martin84:01:31
Facts from Tour de France 1949
  |   Stages.  |   Stage winners.  |   Days in yellow  |   Average speed.  |   Route.  |   Teams.  |   All riders.  |   Rookies.  |  

  |   Withdrawls.  |   GC.  |   Polka  |   Green  |   White  |   Summits. (In tour)  |   Miscellaneous.  |  

Stage 10 on 10 - 07 - 1949
         Owning:    Vittorio Magni    
Pick a stage:  1 2 3 4 5 6 7 8 9 10 11 12 13 14 15 16 17 18 19 20 21
  San-SebastianPau | Dist: 192.00 km.

Average speed for all riders in stage:  30,743 km./hr.
    Place:Name:Team:Time:Km/h:
1
ITAVittorio MagniITACadetti Italiens05:53:04  +  00:00:00=32,628 
2
BELRaymond ImpanisBELBelgium05:53:04  +  00:00:00=32,628 
3
ITASerifano BiagioniITAItaly05:53:04  +  00:00:00=32,628 
44 ITAÉdouard FachleitnerFRASouth-East05:53:04  +  00:00:00=32,628 
55 FRARaphaël GeminianiFRAFrance06:11:17  +  00:18:13=31,028 
66 SUIFerdi KüblerCHESwitzerland06:13:40  +  00:20:36=30,830 
77 ITAGino SciardisITAItaly06:13:40  +  00:20:36=30,830 
88 BELRik Van SteenbergenBELBelgium06:13:40  +  00:20:36=30,830 
99 BELStan OckersBELBelgium06:13:40  +  00:20:36=30,830 
1010 BELMarcel KintBELBelgium06:13:40  +  00:20:36=30,830 
1111 FRAAndre MahéFRAWest-North06:13:40  +  00:20:36=30,830 
1212 FRALouis CaputFRAIle De France06:13:40  +  00:20:36=30,830 
1313 BELJacques GeusBELAiglons Belges06:13:40  +  00:20:36=30,830 
1414 ITAGiuseppe TaccaFRAIle De France06:13:40  +  00:20:36=30,830 
1515 ITAGiuseppe AusendaITACadetti Italiens06:13:40  +  00:20:36=30,830 
1616 ITAAlfredo MartiniITACadetti Italiens06:13:40  +  00:20:36=30,830 
1717 FRAAndré BruléFRAIle De France06:13:40  +  00:20:36=30,830 
1818 BELJoseph VerhaertBELAiglons Belges06:13:40  +  00:20:36=30,830 
1919 ITASylvio PedroniITACadetti Italiens06:13:40  +  00:20:36=30,830 
2020 ITAArmando PeverelliITACadetti Italiens06:13:40  +  00:20:36=30,830 
2121 BELMarcel De MulderBELAiglons Belges06:13:40  +  00:20:36=30,830 
2222 BELMarcel DupontBELAiglons Belges06:13:40  +  00:20:36=30,830 
2323 FRAAntonin RollandFRASouth-East06:13:40  +  00:20:36=30,830 
2424 FRAJacques MarinelliFRAIle De France06:13:40  +  00:20:36=30,830 
2525 ITANello LaurediFRASouth-East06:13:40  +  00:20:36=30,830 
2626 SUIPierre BrambillaFRASouth-East06:13:40  +  00:20:36=30,830 
2727 FRAGeorges RamouluxFRACenter-South West06:13:40  +  00:20:36=30,830 
2828 FRAPaul PineauFRACenter-South West06:13:40  +  00:20:36=30,830 
2929 FRAHenri MassalFRACenter-South West06:13:40  +  00:20:36=30,830 
3030 FRARoger LevequeFRACenter-South West06:13:40  +  00:20:36=30,830 
3131 FRARobert DesbatsFRACenter-South West06:13:40  +  00:20:36=30,830 
3232 FRAJean BlancFRACenter-South West06:13:40  +  00:20:36=30,830 
3333 FRAJean RobicFRAWest-North06:13:40  +  00:20:36=30,830 
3434 FRAJean-Marie GoasmatFRAWest-North06:13:40  +  00:20:36=30,830 
3535 FRAPierre CoganFRAWest-North06:13:40  +  00:20:36=30,830 
3636 BELMarcel HendrickxBELAiglons Belges06:13:40  +  00:20:36=30,830 
3737 LUXJean KirchenLUXLuxembourg06:13:40  +  00:20:36=30,830 
3838 LUXJean GoldschmitLUXLuxembourg06:13:40  +  00:20:36=30,830 
3939 ITAAngelo BrignoleITAItaly06:13:40  +  00:20:36=30,830 
4040 ITAFausto CoppiITAItaly06:13:40  +  00:20:36=30,830 
4141 ITAEttore MilanoITAItaly06:13:40  +  00:20:36=30,830 
4242 ITABruno PasquiniITAItaly06:13:40  +  00:20:36=30,830 
4343 BELFlorent MathieuBELBelgium06:13:40  +  00:20:36=30,830 
4444 ITAGino BartaliITAItaly06:13:40  +  00:20:36=30,830 
4545 BELRoger LambrechtBELBelgium06:13:40  +  00:20:36=30,830 
4646 FRARobert ChapatteFRAFrance06:13:40  +  00:20:36=30,830 
4747 FRARené ViettoFRAFrance06:13:40  +  00:20:36=30,830 
4848 FRAJean-Apotre LazaridesFRAFrance06:13:40  +  00:20:36=30,830 
4949 LUXMarcel ErnzerLUXLuxembourg06:13:40  +  00:20:36=30,830 
5050 LUXJean DiederichLUXLuxembourg06:13:40  +  00:20:36=30,830 
5151 SUIGeorges AeschlimannCHESwitzerland06:13:40  +  00:20:36=30,830 
5252 FRALucien TeisseireFRAFrance06:13:40  +  00:20:36=30,830 
5353 FRALucien LazaridesFRAFrance06:13:40  +  00:20:36=30,830 
5454 FRALouis DeprezFRAFrance06:14:34  +  00:21:30=30,756 
5555 BELDésiré KeteleerBELBelgium06:20:10  +  00:27:06=30,302 
5656 FRAGeorges MartinFRASouth-East06:20:10  +  00:27:06=30,302 
5757 BELEdward Van DijckBELBelgium06:20:10  +  00:27:06=30,302 
5858 FRAPaul GiguetFRASouth-East06:20:10  +  00:27:06=30,302 
5959 ITAFermo CamelliniFRASouth-East06:20:10  +  00:27:06=30,302 
6060 ITAGiovanni CorrieriITAItaly06:20:10  +  00:27:06=30,302 
6161 ITAGuido De SantiITAItaly06:20:10  +  00:27:06=30,302 
6262 SUIGottfried WeilenmannCHESwitzerland06:20:10  +  00:27:06=30,302 
6363 BELBriek SchotteBELBelgium06:20:10  +  00:27:06=30,302 
6464 ITALuciano PezziITAItaly06:20:10  +  00:27:06=30,302 
6565 MARCustodio Dos ReisFRACenter-South West06:20:10  +  00:27:06=30,302 
6666 FRAAlbert DolhatsFRACenter-South West06:20:10  +  00:27:06=30,302 
6767 FRARoger Le NizerhyFRAWest-North06:20:10  +  00:27:06=30,302 
6868 ITAVincenzo RosselloITAItaly06:20:10  +  00:27:06=30,302 
6969 BELNorbert CallensBELBelgium06:20:10  +  00:27:06=30,302 
7070 GERCésar MarcelakFRAWest-North06:20:10  +  00:27:06=30,302 
7171 ITAAdolphe DeleddaFRASouth-East06:22:53  +  00:29:49=30,087 
7272 FRAEdouard MullerFRAIle De France06:22:53  +  00:29:49=30,087 
7373 FRAEmile IdéeFRAIle De France06:25:58  +  00:32:54=29,847 
7474 BELRoger GhyselinckBELBelgium06:27:46  +  00:34:42=29,709 
7575 ITAMario RicciITAItaly06:27:46  +  00:34:42=29,709 

Withdrawls: 11
 
Rider
Team
Reason
25  FRALouison BobetFRAFranceDid not finish
27  FRACamille DanguillaumeFRAFranceDid not finish
29  FRAMaurice DiotFRAFranceDid not finish
30  FRABernard GauthierFRAFranceDid not finish
32  FRAGuy LapébieFRAFranceDid not finish
38  SUIRoger AeschlimannCHESwitzerlandDid not finish
49  NEDHenk de HoogNLDHollandDid not finish
51  NEDWim De RuyterNLDHollandDid not finish
53  NEDFrans PauwelsNLDHollandDid not finish
79  FRARaymond LucasFRAIle De FranceDid not finish
118  FRAJean ReyFRASouth-EastDid not finish
Todays birthdays.

1874  Achille Colas
1895  Lucien Meunier
1902  Lazare Venot
1915  Albert Gijsen
1924  Marcel Zelasco
1930  Juan Campillo
1931  Jean-Claude Skerl
1934  Jean Selic
1935  Arnaldo Pambianco
1955  Mario Beccia
1956  Daniel Willems
1957  Dominique Sanders
1959  Marc Sergeant
1960  Éric Caritoux
1963  Jelle Nijdam
1971  Arnaud Prétot
1980  Piet Rooijakkers